createdAt,value
2018-04-13T00:02:03.901Z,98430.78
2018-04-13T00:04:31.537Z,98427.47
2018-04-13T00:06:59.212Z,98426.03
2018-04-13T00:09:26.889Z,98422.60
2018-04-13T00:11:54.515Z,98428.02
2018-04-13T00:14:22.913Z,98431.34
2018-04-13T00:16:50.592Z,98431.73
2018-04-13T00:19:18.199Z,98423.68
2018-04-13T00:21:45.880Z,98424.03
2018-04-13T00:24:13.494Z,98418.16
2018-04-13T00:26:41.984Z,98416.59
2018-04-13T00:29:09.647Z,98409.26
2018-04-13T00:31:37.320Z,98407.19
2018-04-13T00:34:05.000Z,98405.47
2018-04-13T00:36:32.649Z,98415.14
2018-04-13T00:39:00.256Z,98415.89
2018-04-13T00:41:27.940Z,98417.13
2018-04-13T00:43:55.689Z,98410.58
2018-04-13T00:46:23.360Z,98396.85
2018-04-13T00:48:50.972Z,98402.73
2018-04-13T00:51:18.928Z,98400.06
2018-04-13T00:53:46.543Z,98397.69
2018-04-13T00:56:14.247Z,98399.97
2018-04-13T00:58:42.652Z,98403.31
2018-04-13T01:01:10.279Z,98404.48
2018-04-13T01:03:37.954Z,98405.84
2018-04-13T01:06:05.701Z,98405.11
2018-04-13T01:08:33.378Z,98409.50
2018-04-13T01:11:01.008Z,98408.28
2018-04-13T01:13:28.727Z,98404.23
2018-04-13T01:15:56.358Z,98407.03
2018-04-13T01:18:24.035Z,98407.95
2018-04-13T01:20:51.716Z,98419.45
2018-04-13T01:23:19.327Z,98415.73
2018-04-13T01:25:46.944Z,98412.64
2018-04-13T01:28:14.699Z,98416.06
2018-04-13T01:30:42.304Z,98420.72
2018-04-13T01:33:09.916Z,98421.89
2018-04-13T01:35:37.937Z,98414.01
2018-04-13T01:38:05.573Z,98420.30
2018-04-13T01:40:33.267Z,98419.55
2018-04-13T01:43:00.951Z,98428.23
2018-04-13T01:45:28.653Z,98414.06
2018-04-13T01:47:56.353Z,98417.09
2018-04-13T01:50:24.012Z,98426.09
2018-04-13T01:52:51.670Z,98433.71
2018-04-13T01:55:19.352Z,98429.45
2018-04-13T01:57:47.020Z,98426.13
2018-04-13T02:00:14.857Z,98422.16
2018-04-13T02:02:42.480Z,98418.27
2018-04-13T02:05:10.520Z,98419.34
2018-04-13T02:07:38.168Z,98408.41
2018-04-13T02:10:05.829Z,98407.80
2018-04-13T02:12:33.561Z,98404.62
2018-04-13T02:15:01.237Z,98397.07
2018-04-13T02:17:28.871Z,98386.94
2018-04-13T02:19:56.839Z,98392.55
2018-04-13T02:22:24.435Z,98383.52
2018-04-13T02:24:52.019Z,98383.64
2018-04-13T02:27:19.749Z,98385.66
2018-04-13T02:29:47.407Z,98381.52
2018-04-13T02:32:15.053Z,98379.00
2018-04-13T02:34:42.811Z,98379.75
2018-04-13T02:37:10.492Z,98387.20
2018-04-13T02:39:38.096Z,98394.09
2018-04-13T02:42:05.758Z,98399.53
2018-04-13T02:44:33.409Z,98404.22
2018-04-13T02:47:01.005Z,98402.30
2018-04-13T02:49:28.737Z,98405.68
2018-04-13T02:51:56.419Z,98394.64
2018-04-13T02:54:24.017Z,98399.89
2018-04-13T02:56:51.887Z,98395.75
2018-04-13T02:59:19.492Z,98395.03
2018-04-13T03:01:48.298Z,98394.21
2018-04-13T03:04:15.945Z,98392.70
2018-04-13T03:06:43.530Z,98396.36
2018-04-13T03:09:11.219Z,98398.13
2018-04-13T03:11:38.878Z,98401.91
2018-04-13T03:14:06.476Z,98405.95
2018-04-13T03:16:34.101Z,98403.53
2018-04-13T03:19:01.740Z,98401.75
2018-04-13T03:21:29.343Z,98402.23
2018-04-13T03:23:57.052Z,98390.09
2018-04-13T03:26:24.852Z,98398.16
2018-04-13T03:28:52.440Z,98407.00
2018-04-13T03:31:20.045Z,98409.36
2018-04-13T03:33:47.671Z,98404.88
2018-04-13T03:36:15.261Z,98414.21
2018-04-13T03:38:42.904Z,98421.01
2018-04-13T03:41:10.609Z,98419.13
2018-04-13T03:43:38.236Z,98423.23
2018-04-13T03:46:05.852Z,98421.67
2018-04-13T03:48:33.485Z,98430.39
2018-04-13T03:51:01.062Z,98436.28
2018-04-13T03:53:28.704Z,98438.56
2018-04-13T03:55:56.342Z,98444.16
2018-04-13T03:58:24.000Z,98441.91
2018-04-13T04:00:51.648Z,98453.24
2018-04-13T04:03:20.512Z,98455.17
2018-04-13T04:05:48.120Z,98453.13
2018-04-13T04:08:15.728Z,98455.91
2018-04-13T04:10:44.252Z,98453.55
2018-04-13T04:13:11.940Z,98458.09
2018-04-13T04:15:39.524Z,98464.58
2018-04-13T04:18:07.176Z,98465.48
2018-04-13T04:20:46.515Z,98467.64
2018-04-13T04:23:25.803Z,98474.91
2018-04-13T04:26:05.186Z,98480.81
2018-04-13T04:28:32.819Z,98481.92
2018-04-13T04:31:00.465Z,98479.11
2018-04-13T04:33:28.043Z,98474.70
2018-04-13T04:35:55.896Z,98481.66
2018-04-13T04:38:23.531Z,98483.53
2018-04-13T04:40:51.146Z,98484.61
2018-04-13T04:43:18.796Z,98494.37
2018-04-13T04:45:46.472Z,98482.70
2018-04-13T04:48:14.055Z,98487.31
2018-04-13T04:50:41.700Z,98491.43
2018-04-13T04:53:09.285Z,98493.94
2018-04-13T04:55:36.863Z,98505.23
2018-04-13T04:58:04.573Z,98517.02
2018-04-13T05:00:32.196Z,98519.25
2018-04-13T05:02:59.780Z,98520.73
2018-04-13T05:05:27.561Z,98534.88
2018-04-13T05:07:55.153Z,98534.00
2018-04-13T05:10:22.760Z,98535.81
2018-04-13T05:12:50.703Z,98536.47
2018-04-13T05:15:18.311Z,98544.81
2018-04-13T05:17:45.899Z,98551.48
2018-04-13T05:20:13.592Z,98549.93
2018-04-13T05:22:41.274Z,98559.28
2018-04-13T05:25:08.867Z,98559.60
2018-04-13T05:27:36.624Z,98560.13
2018-04-13T05:30:04.333Z,98558.09
2018-04-13T05:32:31.935Z,98551.61
2018-04-13T05:34:59.643Z,98537.91
2018-04-13T05:37:27.241Z,98536.61
2018-04-13T05:39:54.886Z,98517.05
2018-04-13T05:42:22.520Z,98516.22
2018-04-13T05:44:50.100Z,98520.05
2018-04-13T05:47:17.693Z,98531.09
2018-04-13T05:49:45.383Z,98550.19
2018-04-13T05:52:13.029Z,98559.95
2018-04-13T05:54:40.616Z,98544.50
2018-04-13T05:57:08.537Z,98554.44
2018-04-13T05:59:36.127Z,98555.74
2018-04-13T06:02:03.748Z,98561.58
2018-04-13T06:04:31.470Z,98558.17
2018-04-13T06:07:00.140Z,98559.50
2018-04-13T06:09:27.796Z,98553.50
2018-04-13T06:11:55.464Z,98542.73
2018-04-13T06:14:23.098Z,98535.47
2018-04-13T06:16:50.751Z,98535.38
2018-04-13T06:19:18.400Z,98551.42
2018-04-13T06:21:46.048Z,98552.64
2018-04-13T06:24:13.705Z,98556.38
2018-04-13T06:26:41.533Z,98565.55
2018-04-13T06:29:09.188Z,98576.69
2018-04-13T06:31:36.805Z,98577.34
2018-04-13T06:34:04.469Z,98575.14
2018-04-13T06:36:32.095Z,98574.72
2018-04-13T06:38:59.719Z,98580.59
2018-04-13T06:41:27.367Z,98591.78
2018-04-13T06:43:55.004Z,98583.43
2018-04-13T06:46:22.613Z,98587.02
2018-04-13T06:48:50.371Z,98596.38
2018-04-13T06:51:17.975Z,98597.23
2018-04-13T06:53:45.583Z,98595.05
2018-04-13T06:56:13.260Z,98595.67
2018-04-13T06:58:40.930Z,98601.17
2018-04-13T07:01:08.586Z,98598.91
2018-04-13T07:03:36.301Z,98599.39
2018-04-13T07:06:03.900Z,98611.72
2018-04-13T07:08:31.600Z,98606.48
2018-04-13T07:11:00.744Z,98618.50
2018-04-13T07:13:28.328Z,98613.11
2018-04-13T07:15:55.917Z,98624.39
2018-04-13T07:18:23.616Z,98625.06
2018-04-13T07:20:51.280Z,98618.85
2018-04-13T07:23:18.924Z,98619.41
2018-04-13T07:25:46.626Z,98620.55
2018-04-13T07:28:14.204Z,98614.64
2018-04-13T07:30:41.813Z,98617.26
2018-04-13T07:33:09.787Z,98622.28
2018-04-13T07:35:37.320Z,98624.83
2018-04-13T07:38:04.909Z,98636.73
2018-04-13T07:40:32.770Z,98633.31
2018-04-13T07:43:00.367Z,98635.33
2018-04-13T07:45:27.959Z,98630.33
2018-04-13T07:47:55.646Z,98632.48
2018-04-13T07:50:23.243Z,98628.64
2018-04-13T07:52:50.821Z,98633.66
2018-04-13T07:55:18.522Z,98642.89
2018-04-13T07:57:46.107Z,98638.57
2018-04-13T08:00:13.758Z,98641.08
2018-04-13T08:02:41.417Z,98637.91
2018-04-13T08:05:09.068Z,98641.39
2018-04-13T08:07:36.731Z,98638.20
2018-04-13T08:10:04.614Z,98643.00
2018-04-13T08:12:32.399Z,98635.08
2018-04-13T08:15:00.588Z,98637.48
2018-04-13T08:17:27.590Z,98635.41
2018-04-13T08:19:56.085Z,98641.06
2018-04-13T08:22:23.729Z,98641.33
2018-04-13T08:24:51.429Z,98638.66
2018-04-13T08:27:19.084Z,98635.47
2018-04-13T08:29:46.689Z,98636.41
2018-04-13T08:32:14.328Z,98635.06
2018-04-13T08:34:41.984Z,98632.05
2018-04-13T08:37:09.568Z,98632.25
2018-04-13T08:39:37.287Z,98634.27
2018-04-13T08:42:04.976Z,98637.28
2018-04-13T08:44:33.424Z,98628.79
2018-04-13T08:47:01.050Z,98628.93
2018-04-13T08:49:29.210Z,98629.63
2018-04-13T08:51:56.846Z,98633.77
2018-04-13T08:54:24.499Z,98633.84
2018-04-13T08:56:52.133Z,98635.77
2018-04-13T08:59:19.785Z,98638.66
2018-04-13T09:01:47.449Z,98628.55
2018-04-13T09:04:15.100Z,98628.75
2018-04-13T09:06:42.718Z,98626.45
2018-04-13T09:09:10.345Z,98626.98
2018-04-13T09:11:38.069Z,98624.33
2018-04-13T09:14:05.687Z,98625.25
2018-04-13T09:16:33.380Z,98625.84
2018-04-13T09:19:01.373Z,98618.19
2018-04-13T09:21:28.969Z,98623.42
2018-04-13T09:23:56.663Z,98617.91
2018-04-13T09:26:24.333Z,98609.58
2018-04-13T09:28:51.992Z,98612.63
2018-04-13T09:31:19.757Z,98598.63
2018-04-13T09:33:47.389Z,98593.52
2018-04-13T09:36:14.986Z,98596.88
2018-04-13T09:38:42.624Z,98600.13
2018-04-13T09:41:10.257Z,98603.27
2018-04-13T09:43:37.852Z,98604.70
2018-04-13T09:46:05.512Z,98599.88
2018-04-13T09:48:33.132Z,98593.88
2018-04-13T09:51:00.814Z,98594.42
2018-04-13T09:53:28.818Z,98590.33
2018-04-13T09:55:56.476Z,98589.97
2018-04-13T09:58:24.145Z,98587.70
2018-04-13T10:00:57.425Z,98590.09
2018-04-13T10:03:25.069Z,98585.25
2018-04-13T10:05:52.717Z,98582.83
2018-04-13T10:08:20.356Z,98591.89
2018-04-13T10:10:48.012Z,98583.50
2018-04-13T10:13:16.082Z,98588.70
2018-04-13T10:15:43.768Z,98587.95
2018-04-13T10:18:11.407Z,98586.94
2018-04-13T10:20:39.050Z,98585.00
2018-04-13T10:23:06.872Z,98584.44
2018-04-13T10:25:34.464Z,98583.34
2018-04-13T10:28:02.051Z,98584.45
2018-04-13T10:30:29.958Z,98584.97
2018-04-13T10:32:57.548Z,98586.34
2018-04-13T10:35:25.373Z,98585.25
2018-04-13T10:37:53.035Z,98589.10
2018-04-13T10:40:20.864Z,98586.09
2018-04-13T10:42:48.448Z,98581.44
2018-04-13T10:45:16.092Z,98582.41
2018-04-13T10:47:43.679Z,98585.25
2018-04-13T10:50:11.315Z,98591.00
2018-04-13T10:52:39.013Z,98593.09
2018-04-13T10:55:06.623Z,98588.94
2018-04-13T10:57:34.215Z,98590.52
2018-04-13T11:00:01.976Z,98585.70
2018-04-13T11:02:29.584Z,98582.44
2018-04-13T11:04:57.201Z,98589.05
2018-04-13T11:07:25.105Z,98589.03
2018-04-13T11:09:52.683Z,98593.59
2018-04-13T11:12:20.337Z,98590.91
2018-04-13T11:14:48.115Z,98598.84
2018-04-13T11:17:15.705Z,98601.95
2018-04-13T11:19:43.346Z,98598.48
2018-04-13T11:22:10.988Z,98598.13
2018-04-13T11:24:38.596Z,98595.78
2018-04-13T11:27:06.196Z,98587.21
2018-04-13T11:29:33.845Z,98576.86
2018-04-13T11:32:01.435Z,98582.14
2018-04-13T11:34:29.076Z,98580.83
2018-04-13T11:36:57.049Z,98579.84
2018-04-13T11:39:24.690Z,98578.84
2018-04-13T11:41:52.277Z,98570.97
2018-04-13T11:44:19.911Z,98569.28
2018-04-13T11:46:47.508Z,98567.94
2018-04-13T11:49:15.125Z,98563.23
2018-04-13T11:51:42.922Z,98559.53
2018-04-13T11:54:10.559Z,98563.81
2018-04-13T11:56:38.152Z,98550.38
2018-04-13T11:59:05.902Z,98553.06
2018-04-13T12:01:33.623Z,98547.89
2018-04-13T12:04:01.213Z,98540.70
2018-04-13T12:06:28.878Z,98541.50
2018-04-13T12:08:56.527Z,98542.33
2018-04-13T12:11:24.557Z,98542.41
2018-04-13T12:13:52.264Z,98534.88
2018-04-13T12:16:19.968Z,98541.03
2018-04-13T12:18:47.545Z,98535.72
2018-04-13T12:21:15.228Z,98548.02
2018-04-13T12:23:42.883Z,98537.90
2018-04-13T12:26:10.481Z,98533.27
2018-04-13T12:28:38.937Z,98538.97
2018-04-13T12:31:06.537Z,98525.22
2018-04-13T12:33:34.128Z,98528.73
2018-04-13T12:36:01.914Z,98528.45
2018-04-13T12:38:29.499Z,98522.34
2018-04-13T12:40:57.101Z,98515.84
2018-04-13T12:43:24.737Z,98521.55
2018-04-13T12:45:52.448Z,98511.66
2018-04-13T12:48:20.037Z,98513.31
2018-04-13T12:50:47.677Z,98512.28
2018-04-13T12:53:15.993Z,98511.61
2018-04-13T12:55:45.525Z,98507.96
2018-04-13T12:58:13.480Z,98506.03
2018-04-13T13:00:41.125Z,98497.16
2018-04-13T13:03:08.768Z,98502.58
2018-04-13T13:05:36.557Z,98504.64
2018-04-13T13:08:04.140Z,98503.67
2018-04-13T13:10:31.741Z,98506.84
2018-04-13T13:12:59.399Z,98506.56
2018-04-13T13:15:26.988Z,98510.15
2018-04-13T13:17:54.668Z,98509.98
2018-04-13T13:20:22.359Z,98511.27
2018-04-13T13:22:50.004Z,98503.69
2018-04-13T13:25:17.605Z,98512.07
2018-04-13T13:27:45.309Z,98510.05
2018-04-13T13:30:12.984Z,98505.86
2018-04-13T13:32:40.578Z,98503.80
2018-04-13T13:35:08.212Z,98501.73
2018-04-13T13:37:35.797Z,98501.75
2018-04-13T13:40:04.068Z,98501.18
2018-04-13T13:42:31.753Z,98507.25
2018-04-13T13:44:59.367Z,98505.19
2018-04-13T13:47:26.953Z,98504.91
2018-04-13T13:49:54.638Z,98492.47
2018-04-13T13:52:22.313Z,98496.75
2018-04-13T13:54:49.932Z,98499.80
2018-04-13T13:57:17.720Z,98501.84
2018-04-13T13:59:45.340Z,98498.00
2018-04-13T14:02:12.963Z,98495.07
2018-04-13T14:04:40.889Z,98495.24
2018-04-13T14:07:08.534Z,98496.36
2018-04-13T14:09:36.129Z,98497.48
2018-04-13T14:12:06.708Z,98501.03
2018-04-13T14:14:34.305Z,98487.49
2018-04-13T14:17:01.918Z,98494.13
2018-04-13T14:19:29.813Z,98493.22
2018-04-13T14:21:57.441Z,98493.07
2018-04-13T14:24:25.032Z,98492.83
2018-04-13T14:26:52.686Z,98484.72
2018-04-13T14:29:20.346Z,98485.92
2018-04-13T14:31:47.987Z,98488.77
2018-04-13T14:34:15.697Z,98481.98
2018-04-13T14:39:25.462Z,98487.97
2018-04-13T14:41:53.152Z,98485.59
2018-04-13T14:44:20.804Z,98488.17
2018-04-13T14:46:48.506Z,98486.53
2018-04-13T14:49:16.152Z,98487.62
2018-04-13T14:51:43.794Z,98489.64
2018-04-13T14:54:11.428Z,98489.29
2018-04-13T14:56:39.020Z,98485.54
2018-04-13T14:59:06.688Z,98484.16
2018-04-13T15:01:34.320Z,98486.50
2018-04-13T15:04:01.957Z,98483.20
2018-04-13T15:06:29.544Z,98481.14
2018-04-13T15:08:57.198Z,98483.91
2018-04-13T15:11:27.591Z,98486.27
2018-04-13T15:13:55.207Z,98485.27
2018-04-13T15:16:23.117Z,98486.78
2018-04-13T15:18:50.767Z,98488.87
2018-04-13T15:21:18.514Z,98489.92
2018-04-13T15:23:46.168Z,98490.47
2018-04-13T15:26:13.758Z,98488.95
2018-04-13T15:28:41.338Z,98493.00
2018-04-13T15:31:09.075Z,98493.17
2018-04-13T15:33:36.676Z,98496.85
2018-04-13T15:36:04.298Z,98490.34
2018-04-13T15:38:32.098Z,98492.21
2018-04-13T15:40:59.827Z,98491.87
2018-04-13T15:43:27.391Z,98489.66
2018-04-13T15:45:55.080Z,98490.95
2018-04-13T15:48:22.723Z,98496.33
2018-04-13T15:50:50.296Z,98503.05
2018-04-13T15:53:17.944Z,98494.23
2018-04-13T15:55:45.625Z,98499.95
2018-04-13T15:58:13.217Z,98495.32
2018-04-13T16:00:40.864Z,98499.61
2018-04-13T16:03:08.536Z,98499.45
2018-04-13T16:05:36.173Z,98503.33
2018-04-13T16:08:03.982Z,98499.31
2018-04-13T16:10:31.958Z,98496.38
2018-04-13T16:12:59.532Z,98499.92
2018-04-13T16:15:27.172Z,98500.41
2018-04-13T16:17:54.824Z,98505.63
2018-04-13T16:20:22.486Z,98506.70
2018-04-13T16:22:50.265Z,98515.74
2018-04-13T16:25:17.851Z,98516.13
2018-04-13T16:27:45.504Z,98520.65
2018-04-13T16:30:13.289Z,98522.28
2018-04-13T16:32:41.707Z,98527.16
2018-04-13T16:35:09.400Z,98533.05
2018-04-13T16:37:37.102Z,98532.25
2018-04-13T16:40:04.752Z,98536.19
2018-04-13T16:42:32.391Z,98550.84
2018-04-13T16:45:00.185Z,98549.69
2018-04-13T16:47:27.771Z,98547.06
2018-04-13T16:49:55.439Z,98550.41
2018-04-13T16:52:23.220Z,98552.41
2018-04-13T16:54:50.825Z,98549.56
2018-04-13T16:57:18.403Z,98550.39
2018-04-13T16:59:46.052Z,98553.88
2018-04-13T17:02:13.701Z,98559.56
2018-04-13T17:04:41.295Z,98560.92
2018-04-13T17:07:08.973Z,98569.52
2018-04-13T17:09:36.640Z,98562.13
2018-04-13T17:12:04.249Z,98560.00
2018-04-13T17:14:31.880Z,98569.95
2018-04-13T17:16:59.533Z,98578.65
2018-04-13T17:19:27.151Z,98582.20
2018-04-13T17:21:54.872Z,98589.44
2018-04-13T17:24:22.747Z,98587.49
2018-04-13T17:26:50.412Z,98587.19
2018-04-13T17:29:18.214Z,98595.68
2018-04-13T17:31:45.848Z,98593.85
2018-04-13T17:34:13.431Z,98593.70
2018-04-13T17:36:41.072Z,98602.38
2018-04-13T17:39:08.651Z,98606.78
2018-04-13T17:41:36.301Z,98614.17
2018-04-13T17:44:03.943Z,98617.52
2018-04-13T17:46:31.532Z,98620.78
2018-04-13T17:48:59.140Z,98622.40
2018-04-13T17:51:26.768Z,98626.53
2018-04-13T17:53:54.360Z,98624.66
2018-04-13T17:56:21.951Z,98621.63
2018-04-13T17:58:49.612Z,98627.13
2018-04-13T18:01:17.208Z,98635.80
2018-04-13T18:03:44.866Z,98640.98
2018-04-13T18:06:12.651Z,98648.17
2018-04-13T18:08:40.226Z,98634.65
2018-04-13T18:11:07.821Z,98636.72
2018-04-13T18:13:36.375Z,98638.63
2018-04-13T18:16:04.009Z,98632.95
2018-04-13T18:18:31.593Z,98630.75
2018-04-13T18:20:59.248Z,98636.28
2018-04-13T18:23:26.981Z,98650.72
2018-04-13T18:25:54.635Z,98642.03
2018-04-13T18:28:22.274Z,98639.41
2018-04-13T18:30:49.915Z,98652.05
2018-04-13T18:33:17.520Z,98662.31
2018-04-13T18:35:45.212Z,98664.16
2018-04-13T18:38:12.807Z,98671.22
2018-04-13T18:40:40.389Z,98674.06
2018-04-13T18:43:08.093Z,98672.52
2018-04-13T18:45:35.723Z,98675.64
2018-04-13T18:48:03.315Z,98671.10
2018-04-13T18:50:30.976Z,98676.27
2018-04-13T18:52:58.892Z,98681.38
2018-04-13T18:55:26.476Z,98689.94
2018-04-13T18:57:54.287Z,98683.57
2018-04-13T19:00:21.892Z,98684.09
2018-04-13T19:02:49.540Z,98682.11
2018-04-13T19:05:17.158Z,98681.52
2018-04-13T19:07:44.727Z,98683.73
2018-04-13T19:10:12.373Z,98682.80
2018-04-13T19:12:40.096Z,98688.00
2018-04-13T19:15:07.763Z,98686.83
2018-04-13T19:17:35.396Z,98686.61
2018-04-13T19:20:03.043Z,98680.25
2018-04-13T19:22:30.620Z,98684.52
2018-04-13T19:24:58.281Z,98681.41
2018-04-13T19:27:25.948Z,98689.96
2018-04-13T19:29:53.583Z,98700.09
2018-04-13T19:32:21.236Z,98703.30
2018-04-13T19:34:49.022Z,98698.16
2018-04-13T19:37:16.666Z,98704.91
2018-04-13T19:39:44.261Z,98710.06
2018-04-13T19:42:11.951Z,98718.25
2018-04-13T19:44:39.581Z,98714.01
2018-04-13T19:47:07.199Z,98710.99
2018-04-13T19:49:34.943Z,98709.30
2018-04-13T19:52:02.534Z,98705.89
2018-04-13T19:54:30.220Z,98713.29
2018-04-13T19:56:58.041Z,98712.73
2018-04-13T19:59:25.735Z,98714.05
2018-04-13T20:01:53.311Z,98714.28
2018-04-13T20:04:21.052Z,98716.51
2018-04-13T20:06:48.649Z,98721.98
2018-04-13T20:09:16.346Z,98723.78
2018-04-13T20:11:44.067Z,98718.03
2018-04-13T20:14:11.736Z,98728.05
2018-04-13T20:16:39.323Z,98730.25
2018-04-13T20:19:07.026Z,98729.25
2018-04-13T20:21:35.383Z,98729.23
2018-04-13T20:24:02.986Z,98726.31
2018-04-13T20:26:30.727Z,98727.17
2018-04-13T20:28:58.525Z,98730.55
2018-04-13T20:31:26.112Z,98737.05
2018-04-13T20:33:53.839Z,98731.84
2018-04-13T20:36:21.428Z,98732.98
2018-04-13T20:38:49.008Z,98737.59
2018-04-13T20:41:16.646Z,98736.37
2018-04-13T20:43:45.025Z,98736.79
2018-04-13T20:46:12.677Z,98745.16
2018-04-13T20:48:40.312Z,98748.42
2018-04-13T20:51:07.925Z,98744.64
2018-04-13T20:53:35.514Z,98745.81
2018-04-13T20:56:03.161Z,98748.13
2018-04-13T20:58:31.443Z,98756.70
2018-04-13T21:00:59.100Z,98759.84
2018-04-13T21:03:26.742Z,98763.22
2018-04-13T21:05:54.404Z,98766.45
2018-04-13T21:08:22.008Z,98766.45
2018-04-13T21:10:49.817Z,98769.60
2018-04-13T21:13:17.400Z,98767.28
2018-04-13T21:15:45.009Z,98771.90
2018-04-13T21:18:12.876Z,98774.02
2018-04-13T21:20:40.460Z,98778.83
2018-04-13T21:23:08.078Z,98785.52
2018-04-13T21:25:35.881Z,98789.41
2018-04-13T21:28:03.469Z,98792.43
2018-04-13T21:30:31.220Z,98792.37
2018-04-13T21:32:58.852Z,98794.34
2018-04-13T21:35:26.503Z,98797.81
2018-04-13T21:37:54.077Z,98801.14
2018-04-13T21:40:21.880Z,98802.70
2018-04-13T21:42:49.472Z,98802.59
2018-04-13T21:45:17.137Z,98805.28
2018-04-13T21:47:45.455Z,98810.81
2018-04-13T21:50:13.053Z,98807.98
2018-04-13T21:52:40.647Z,98810.48
2018-04-13T21:55:08.276Z,98809.67
2018-04-13T21:57:35.933Z,98807.66
2018-04-13T22:00:03.647Z,98808.50
2018-04-13T22:02:31.940Z,98806.02
2018-04-13T22:04:59.745Z,98806.83
2018-04-13T22:07:27.418Z,98797.95
2018-04-13T22:09:55.157Z,98800.95
2018-04-13T22:12:34.573Z,98802.55
2018-04-13T22:15:02.294Z,98807.14
2018-04-13T22:17:29.919Z,98801.05
2018-04-13T22:19:57.500Z,98809.77
2018-04-13T22:22:25.140Z,98809.20
2018-04-13T22:24:52.800Z,98809.42
2018-04-13T22:27:20.378Z,98815.04
2018-04-13T22:29:48.069Z,98817.62
2018-04-13T22:32:15.872Z,98814.98
2018-04-13T22:34:43.473Z,98813.72
2018-04-13T22:37:11.261Z,98809.86
2018-04-13T22:39:38.839Z,98824.77
2018-04-13T22:42:06.488Z,98818.22
2018-04-13T22:44:34.128Z,98815.21
2018-04-13T22:47:01.708Z,98814.98
2018-04-13T22:49:29.292Z,98819.80
2018-04-13T22:51:56.951Z,98825.31
2018-04-13T22:54:24.544Z,98827.36
2018-04-13T22:56:52.228Z,98832.38
2018-04-13T22:59:20.307Z,98829.89
2018-04-13T23:01:47.954Z,98822.88
2018-04-13T23:04:15.604Z,98825.59
2018-04-13T23:06:43.397Z,98827.36
2018-04-13T23:09:11.076Z,98826.33
2018-04-13T23:11:38.734Z,98827.03
2018-04-13T23:14:06.529Z,98829.13
2018-04-13T23:16:34.173Z,98833.02
2018-04-13T23:19:01.784Z,98827.66
2018-04-13T23:21:29.427Z,98828.06
2018-04-13T23:23:57.203Z,98831.30
2018-04-13T23:26:24.799Z,98832.23
2018-04-13T23:28:52.516Z,98837.85
2018-04-13T23:31:20.096Z,98836.69
2018-04-13T23:33:48.005Z,98841.77
2018-04-13T23:36:15.725Z,98842.04
2018-04-13T23:38:43.364Z,98845.84
2018-04-13T23:41:10.956Z,98846.41
2018-04-13T23:43:38.606Z,98846.77
2018-04-13T23:46:06.806Z,98850.62
2018-04-13T23:48:34.385Z,98854.27
2018-04-13T23:51:02.102Z,98851.41
2018-04-13T23:53:29.698Z,98854.88
2018-04-13T23:55:57.311Z,98852.48
2018-04-13T23:58:25.100Z,98854.78
